X  Fermer Données météorologiques d'aviation de Metar     EHKD De Kooy Airport
Température
18°C Température
14°C Point de rosée
78% Humidité



Vent
18 MPH
29 KM/H
8 M/S
16 KTS



230°
SO
Conditions actuelles

Plutôt nuageux Plutôt nuageux
Pression 1008.81 (hPa) - 29.79 (inHg)
Visibilité 6 (mile) - 9.7 (km)
Aéroport
Code de l'aéroport EHKD

Emplacement: De Kooy Airport
Distance: 34 (mi)

Metar:
EHKD 161557Z AUTO 23016KT 190V250 9999 BKN014 BKN017 OVC140 18/14 Q1009 GRN NOSIG

Temps: 16-07-2024 17:57 CEST